sensor_id;sensor_type;location;lat;lon;timestamp;P1;durP1;ratioP1;P2;durP2;ratioP2
55589;SDS011;41452;42.780;23.116;2023-02-28T00:00:46;12.90;;;6.18;;
55589;SDS011;41452;42.780;23.116;2023-02-28T00:03:11;11.73;;;5.53;;
55589;SDS011;41452;42.780;23.116;2023-02-28T00:05:37;12.02;;;5.55;;
55589;SDS011;41452;42.780;23.116;2023-02-28T00:08:02;11.35;;;5.78;;
55589;SDS011;41452;42.780;23.116;2023-02-28T00:10:29;13.88;;;6.50;;
55589;SDS011;41452;42.780;23.116;2023-02-28T00:12:58;14.85;;;6.18;;
55589;SDS011;41452;42.780;23.116;2023-02-28T00:15:26;13.10;;;6.47;;
55589;SDS011;41452;42.780;23.116;2023-02-28T00:17:52;12.73;;;6.20;;
55589;SDS011;41452;42.780;23.116;2023-02-28T00:20:17;12.55;;;7.00;;
55589;SDS011;41452;42.780;23.116;2023-02-28T00:22:44;18.25;;;7.38;;
55589;SDS011;41452;42.780;23.116;2023-02-28T00:25:12;17.80;;;6.82;;
55589;SDS011;41452;42.780;23.116;2023-02-28T00:27:39;11.77;;;6.35;;
55589;SDS011;41452;42.780;23.116;2023-02-28T00:30:06;18.27;;;7.90;;
55589;SDS011;41452;42.780;23.116;2023-02-28T00:32:33;12.65;;;6.97;;
55589;SDS011;41452;42.780;23.116;2023-02-28T00:34:59;19.17;;;7.70;;
55589;SDS011;41452;42.780;23.116;2023-02-28T00:37:25;13.73;;;6.80;;
55589;SDS011;41452;42.780;23.116;2023-02-28T00:39:50;16.33;;;7.53;;
55589;SDS011;41452;42.780;23.116;2023-02-28T00:42:16;12.50;;;5.65;;
55589;SDS011;41452;42.780;23.116;2023-02-28T00:44:41;12.38;;;6.63;;
55589;SDS011;41452;42.780;23.116;2023-02-28T00:47:07;14.60;;;7.10;;
55589;SDS011;41452;42.780;23.116;2023-02-28T00:49:32;13.95;;;6.22;;
55589;SDS011;41452;42.780;23.116;2023-02-28T00:51:58;12.15;;;6.20;;
55589;SDS011;41452;42.780;23.116;2023-02-28T00:54:23;12.52;;;5.07;;
55589;SDS011;41452;42.780;23.116;2023-02-28T00:56:49;8.43;;;4.65;;
55589;SDS011;41452;42.780;23.116;2023-02-28T00:59:15;10.73;;;5.40;;
55589;SDS011;41452;42.780;23.116;2023-02-28T01:01:42;11.90;;;5.07;;
55589;SDS011;41452;42.780;23.116;2023-02-28T01:04:07;12.57;;;5.18;;
55589;SDS011;41452;42.780;23.116;2023-02-28T01:06:33;10.95;;;5.18;;
55589;SDS011;41452;42.780;23.116;2023-02-28T01:08:59;10.40;;;4.80;;
55589;SDS011;41452;42.780;23.116;2023-02-28T01:11:24;10.07;;;5.22;;
55589;SDS011;41452;42.780;23.116;2023-02-28T01:13:50;10.48;;;5.38;;
55589;SDS011;41452;42.780;23.116;2023-02-28T01:16:15;10.85;;;4.60;;
55589;SDS011;41452;42.780;23.116;2023-02-28T01:18:41;10.82;;;4.97;;
55589;SDS011;41452;42.780;23.116;2023-02-28T01:21:08;9.98;;;4.90;;
55589;SDS011;41452;42.780;23.116;2023-02-28T01:23:36;16.20;;;6.05;;
55589;SDS011;41452;42.780;23.116;2023-02-28T01:26:12;8.88;;;4.28;;
55589;SDS011;41452;42.780;23.116;2023-02-28T01:28:42;14.15;;;5.82;;
55589;SDS011;41452;42.780;23.116;2023-02-28T01:31:08;13.52;;;5.35;;
55589;SDS011;41452;42.780;23.116;2023-02-28T01:33:34;9.60;;;5.22;;
55589;SDS011;41452;42.780;23.116;2023-02-28T01:36:04;10.88;;;5.60;;
55589;SDS011;41452;42.780;23.116;2023-02-28T01:38:39;11.30;;;5.28;;
55589;SDS011;41452;42.780;23.116;2023-02-28T01:41:05;13.32;;;5.57;;
55589;SDS011;41452;42.780;23.116;2023-02-28T01:43:39;10.25;;;5.82;;
55589;SDS011;41452;42.780;23.116;2023-02-28T01:46:19;12.00;;;6.32;;
55589;SDS011;41452;42.780;23.116;2023-02-28T01:48:48;13.70;;;6.00;;
55589;SDS011;41452;42.780;23.116;2023-02-28T01:51:29;12.98;;;5.85;;
55589;SDS011;41452;42.780;23.116;2023-02-28T01:53:56;13.02;;;5.85;;
55589;SDS011;41452;42.780;23.116;2023-02-28T01:56:44;13.60;;;5.70;;
55589;SDS011;41452;42.780;23.116;2023-02-28T01:59:14;12.85;;;6.40;;
55589;SDS011;41452;42.780;23.116;2023-02-28T02:01:47;16.45;;;6.13;;
55589;SDS011;41452;42.780;23.116;2023-02-28T02:04:13;11.98;;;6.03;;
55589;SDS011;41452;42.780;23.116;2023-02-28T02:06:40;13.68;;;5.82;;
55589;SDS011;41452;42.780;23.116;2023-02-28T02:09:08;12.27;;;6.20;;
55589;SDS011;41452;42.780;23.116;2023-02-28T02:11:34;10.98;;;6.00;;
55589;SDS011;41452;42.780;23.116;2023-02-28T02:20:16;12.57;;;6.20;;
55589;SDS011;41452;42.780;23.116;2023-02-28T02:35:43;11.35;;;6.40;;
55589;SDS011;41452;42.780;23.116;2023-02-28T02:38:19;17.92;;;6.50;;
55589;SDS011;41452;42.780;23.116;2023-02-28T02:43:31;16.48;;;6.07;;
55589;SDS011;41452;42.780;23.116;2023-02-28T02:46:06;13.23;;;6.22;;
55589;SDS011;41452;42.780;23.116;2023-02-28T02:48:42;13.60;;;5.70;;
55589;SDS011;41452;42.780;23.116;2023-02-28T02:51:10;10.98;;;6.00;;
55589;SDS011;41452;42.780;23.116;2023-02-28T02:53:49;11.27;;;5.80;;
55589;SDS011;41452;42.780;23.116;2023-02-28T02:56:18;14.60;;;6.88;;
55589;SDS011;41452;42.780;23.116;2023-02-28T02:58:46;18.85;;;6.70;;
55589;SDS011;41452;42.780;23.116;2023-02-28T03:01:15;12.15;;;6.38;;
55589;SDS011;41452;42.780;23.116;2023-02-28T03:03:56;11.85;;;5.93;;
55589;SDS011;41452;42.780;23.116;2023-02-28T03:06:25;15.73;;;5.85;;
55589;SDS011;41452;42.780;23.116;2023-02-28T03:08:51;19.92;;;9.30;;
55589;SDS011;41452;42.780;23.116;2023-02-28T03:11:16;25.98;;;11.65;;
55589;SDS011;41452;42.780;23.116;2023-02-28T03:13:44;21.35;;;10.27;;
55589;SDS011;41452;42.780;23.116;2023-02-28T03:21:59;21.92;;;7.93;;
55589;SDS011;41452;42.780;23.116;2023-02-28T03:24:34;26.80;;;9.32;;
55589;SDS011;41452;42.780;23.116;2023-02-28T03:29:48;24.77;;;9.48;;
55589;SDS011;41452;42.780;23.116;2023-02-28T03:35:39;18.73;;;7.28;;
55589;SDS011;41452;42.780;23.116;2023-02-28T03:38:21;21.05;;;7.72;;
55589;SDS011;41452;42.780;23.116;2023-02-28T03:40:58;25.20;;;9.05;;
55589;SDS011;41452;42.780;23.116;2023-02-28T03:43:31;26.27;;;8.45;;
55589;SDS011;41452;42.780;23.116;2023-02-28T03:46:02;24.13;;;8.52;;
55589;SDS011;41452;42.780;23.116;2023-02-28T03:48:35;27.50;;;8.55;;
55589;SDS011;41452;42.780;23.116;2023-02-28T03:51:17;24.97;;;8.97;;
55589;SDS011;41452;42.780;23.116;2023-02-28T03:53:59;31.63;;;8.77;;
55589;SDS011;41452;42.780;23.116;2023-02-28T03:56:39;20.15;;;8.38;;
55589;SDS011;41452;42.780;23.116;2023-02-28T04:01:55;22.95;;;8.32;;
55589;SDS011;41452;42.780;23.116;2023-02-28T04:04:23;26.33;;;8.60;;
55589;SDS011;41452;42.780;23.116;2023-02-28T04:06:50;26.52;;;7.70;;
55589;SDS011;41452;42.780;23.116;2023-02-28T04:09:17;23.60;;;8.85;;
55589;SDS011;41452;42.780;23.116;2023-02-28T04:11:49;29.55;;;8.32;;
55589;SDS011;41452;42.780;23.116;2023-02-28T04:14:20;28.23;;;8.68;;
55589;SDS011;41452;42.780;23.116;2023-02-28T04:16:46;23.73;;;8.73;;
55589;SDS011;41452;42.780;23.116;2023-02-28T04:19:12;24.92;;;9.40;;
55589;SDS011;41452;42.780;23.116;2023-02-28T04:24:06;22.83;;;9.23;;
55589;SDS011;41452;42.780;23.116;2023-02-28T04:26:34;28.67;;;8.88;;
55589;SDS011;41452;42.780;23.116;2023-02-28T04:29:02;27.95;;;9.70;;
55589;SDS011;41452;42.780;23.116;2023-02-28T04:31:29;32.78;;;9.90;;
55589;SDS011;41452;42.780;23.116;2023-02-28T04:33:55;27.17;;;8.30;;
55589;SDS011;41452;42.780;23.116;2023-02-28T04:36:21;19.42;;;8.15;;
55589;SDS011;41452;42.780;23.116;2023-02-28T04:38:48;19.40;;;8.38;;
55589;SDS011;41452;42.780;23.116;2023-02-28T04:41:14;17.88;;;7.40;;
55589;SDS011;41452;42.780;23.116;2023-02-28T04:43:40;14.50;;;7.38;;
55589;SDS011;41452;42.780;23.116;2023-02-28T04:46:06;19.15;;;7.93;;
55589;SDS011;41452;42.780;23.116;2023-02-28T04:48:32;23.67;;;8.75;;
55589;SDS011;41452;42.780;23.116;2023-02-28T04:51:00;19.15;;;7.80;;
55589;SDS011;41452;42.780;23.116;2023-02-28T04:53:27;18.42;;;8.63;;
55589;SDS011;41452;42.780;23.116;2023-02-28T04:55:53;19.65;;;8.38;;
55589;SDS011;41452;42.780;23.116;2023-02-28T04:58:19;28.85;;;10.00;;
55589;SDS011;41452;42.780;23.116;2023-02-28T05:00:48;26.17;;;8.68;;
55589;SDS011;41452;42.780;23.116;2023-02-28T05:03:13;24.98;;;10.02;;
55589;SDS011;41452;42.780;23.116;2023-02-28T05:05:38;24.10;;;8.80;;
55589;SDS011;41452;42.780;23.116;2023-02-28T05:08:04;18.52;;;8.55;;
55589;SDS011;41452;42.780;23.116;2023-02-28T05:10:30;24.08;;;9.52;;
55589;SDS011;41452;42.780;23.116;2023-02-28T05:12:55;19.02;;;8.68;;
55589;SDS011;41452;42.780;23.116;2023-02-28T05:15:21;21.77;;;9.68;;
55589;SDS011;41452;42.780;23.116;2023-02-28T05:17:46;20.98;;;7.47;;
55589;SDS011;41452;42.780;23.116;2023-02-28T05:20:12;19.23;;;7.68;;
55589;SDS011;41452;42.780;23.116;2023-02-28T05:22:38;19.27;;;8.05;;
55589;SDS011;41452;42.780;23.116;2023-02-28T05:25:04;22.00;;;9.10;;
55589;SDS011;41452;42.780;23.116;2023-02-28T05:27:30;24.63;;;9.60;;
55589;SDS011;41452;42.780;23.116;2023-02-28T05:29:56;23.80;;;9.27;;
55589;SDS011;41452;42.780;23.116;2023-02-28T05:32:21;26.10;;;9.30;;
55589;SDS011;41452;42.780;23.116;2023-02-28T05:34:47;23.92;;;9.38;;
55589;SDS011;41452;42.780;23.116;2023-02-28T05:37:12;25.45;;;10.35;;
55589;SDS011;41452;42.780;23.116;2023-02-28T05:39:38;24.90;;;9.35;;
55589;SDS011;41452;42.780;23.116;2023-02-28T05:42:04;27.48;;;10.27;;
55589;SDS011;41452;42.780;23.116;2023-02-28T05:44:30;26.02;;;10.57;;
55589;SDS011;41452;42.780;23.116;2023-02-28T05:46:55;25.55;;;9.77;;
55589;SDS011;41452;42.780;23.116;2023-02-28T05:49:21;27.85;;;10.90;;
55589;SDS011;41452;42.780;23.116;2023-02-28T05:51:46;30.50;;;11.10;;
55589;SDS011;41452;42.780;23.116;2023-02-28T05:54:11;25.65;;;11.02;;
55589;SDS011;41452;42.780;23.116;2023-02-28T05:56:37;30.23;;;11.10;;
55589;SDS011;41452;42.780;23.116;2023-02-28T05:59:04;28.67;;;11.20;;
55589;SDS011;41452;42.780;23.116;2023-02-28T06:01:32;33.22;;;11.30;;
55589;SDS011;41452;42.780;23.116;2023-02-28T06:04:02;28.35;;;9.88;;
55589;SDS011;41452;42.780;23.116;2023-02-28T06:06:29;28.98;;;10.73;;
55589;SDS011;41452;42.780;23.116;2023-02-28T06:08:55;29.73;;;10.18;;
55589;SDS011;41452;42.780;23.116;2023-02-28T06:11:21;38.33;;;10.10;;
55589;SDS011;41452;42.780;23.116;2023-02-28T06:13:53;28.35;;;9.88;;
55589;SDS011;41452;42.780;23.116;2023-02-28T06:16:20;30.25;;;10.35;;
55589;SDS011;41452;42.780;23.116;2023-02-28T06:18:45;32.88;;;10.73;;
55589;SDS011;41452;42.780;23.116;2023-02-28T06:21:11;33.05;;;9.77;;
55589;SDS011;41452;42.780;23.116;2023-02-28T06:23:37;27.42;;;10.00;;
55589;SDS011;41452;42.780;23.116;2023-02-28T06:26:03;28.48;;;9.98;;
55589;SDS011;41452;42.780;23.116;2023-02-28T06:28:28;35.58;;;11.65;;
55589;SDS011;41452;42.780;23.116;2023-02-28T06:30:54;34.75;;;10.57;;
55589;SDS011;41452;42.780;23.116;2023-02-28T06:33:19;34.20;;;10.60;;
55589;SDS011;41452;42.780;23.116;2023-02-28T06:35:46;31.15;;;11.02;;
55589;SDS011;41452;42.780;23.116;2023-02-28T06:38:12;35.85;;;14.40;;
55589;SDS011;41452;42.780;23.116;2023-02-28T06:40:37;42.00;;;14.65;;
55589;SDS011;41452;42.780;23.116;2023-02-28T06:43:03;29.98;;;13.20;;
55589;SDS011;41452;42.780;23.116;2023-02-28T06:45:28;37.72;;;13.65;;
55589;SDS011;41452;42.780;23.116;2023-02-28T06:47:54;36.20;;;13.52;;
55589;SDS011;41452;42.780;23.116;2023-02-28T06:50:20;34.15;;;12.30;;
55589;SDS011;41452;42.780;23.116;2023-02-28T06:52:45;31.30;;;12.90;;
55589;SDS011;41452;42.780;23.116;2023-02-28T06:55:11;38.70;;;13.93;;
55589;SDS011;41452;42.780;23.116;2023-02-28T06:57:36;34.47;;;14.07;;
55589;SDS011;41452;42.780;23.116;2023-02-28T07:00:07;35.53;;;14.98;;
55589;SDS011;41452;42.780;23.116;2023-02-28T07:02:37;29.13;;;12.50;;
55589;SDS011;41452;42.780;23.116;2023-02-28T07:05:03;34.85;;;13.90;;
55589;SDS011;41452;42.780;23.116;2023-02-28T07:07:30;34.60;;;12.82;;
55589;SDS011;41452;42.780;23.116;2023-02-28T07:09:55;35.08;;;13.45;;
55589;SDS011;41452;42.780;23.116;2023-02-28T07:12:21;39.53;;;15.23;;
55589;SDS011;41452;42.780;23.116;2023-02-28T07:14:46;36.42;;;14.18;;
55589;SDS011;41452;42.780;23.116;2023-02-28T07:17:12;35.80;;;13.18;;
55589;SDS011;41452;42.780;23.116;2023-02-28T07:19:38;28.55;;;12.48;;
55589;SDS011;41452;42.780;23.116;2023-02-28T07:22:04;36.13;;;16.05;;
55589;SDS011;41452;42.780;23.116;2023-02-28T07:24:30;35.88;;;14.07;;
55589;SDS011;41452;42.780;23.116;2023-02-28T07:26:55;31.42;;;11.95;;
55589;SDS011;41452;42.780;23.116;2023-02-28T07:29:21;39.45;;;13.32;;
55589;SDS011;41452;42.780;23.116;2023-02-28T07:31:46;33.97;;;13.57;;
55589;SDS011;41452;42.780;23.116;2023-02-28T07:34:12;28.70;;;12.55;;
55589;SDS011;41452;42.780;23.116;2023-02-28T07:36:38;32.67;;;13.02;;
55589;SDS011;41452;42.780;23.116;2023-02-28T07:39:04;29.55;;;12.57;;
55589;SDS011;41452;42.780;23.116;2023-02-28T07:41:29;33.30;;;13.27;;
55589;SDS011;41452;42.780;23.116;2023-02-28T07:43:57;35.10;;;13.43;;
55589;SDS011;41452;42.780;23.116;2023-02-28T07:46:24;36.17;;;14.48;;
55589;SDS011;41452;42.780;23.116;2023-02-28T07:48:50;41.80;;;16.15;;
55589;SDS011;41452;42.780;23.116;2023-02-28T07:51:16;44.58;;;15.73;;
55589;SDS011;41452;42.780;23.116;2023-02-28T07:53:41;43.90;;;15.15;;
55589;SDS011;41452;42.780;23.116;2023-02-28T07:56:07;39.28;;;14.68;;
55589;SDS011;41452;42.780;23.116;2023-02-28T07:58:33;36.72;;;13.88;;
55589;SDS011;41452;42.780;23.116;2023-02-28T08:01:04;38.75;;;14.45;;
55589;SDS011;41452;42.780;23.116;2023-02-28T08:03:31;32.60;;;12.70;;
55589;SDS011;41452;42.780;23.116;2023-02-28T08:05:56;37.05;;;13.63;;
55589;SDS011;41452;42.780;23.116;2023-02-28T08:08:22;40.22;;;15.20;;
55589;SDS011;41452;42.780;23.116;2023-02-28T08:10:47;37.35;;;14.48;;
55589;SDS011;41452;42.780;23.116;2023-02-28T08:13:12;35.88;;;14.52;;
55589;SDS011;41452;42.780;23.116;2023-02-28T08:15:40;49.42;;;17.70;;
55589;SDS011;41452;42.780;23.116;2023-02-28T08:18:06;48.45;;;16.83;;
55589;SDS011;41452;42.780;23.116;2023-02-28T08:20:31;38.60;;;15.30;;
55589;SDS011;41452;42.780;23.116;2023-02-28T08:22:57;45.15;;;16.25;;
55589;SDS011;41452;42.780;23.116;2023-02-28T08:25:22;41.85;;;16.40;;
55589;SDS011;41452;42.780;23.116;2023-02-28T08:27:50;40.47;;;15.55;;
55589;SDS011;41452;42.780;23.116;2023-02-28T08:30:17;48.28;;;18.30;;
55589;SDS011;41452;42.780;23.116;2023-02-28T08:32:42;43.88;;;16.90;;
55589;SDS011;41452;42.780;23.116;2023-02-28T08:35:07;43.63;;;17.60;;
55589;SDS011;41452;42.780;23.116;2023-02-28T08:37:34;47.80;;;17.52;;
55589;SDS011;41452;42.780;23.116;2023-02-28T08:39:59;49.85;;;18.23;;
55589;SDS011;41452;42.780;23.116;2023-02-28T08:42:25;44.15;;;17.10;;
55589;SDS011;41452;42.780;23.116;2023-02-28T08:44:50;47.47;;;17.90;;
55589;SDS011;41452;42.780;23.116;2023-02-28T08:47:15;44.17;;;17.40;;
55589;SDS011;41452;42.780;23.116;2023-02-28T08:49:41;39.88;;;17.10;;
55589;SDS011;41452;42.780;23.116;2023-02-28T08:52:06;53.13;;;17.67;;
55589;SDS011;41452;42.780;23.116;2023-02-28T08:54:32;48.53;;;16.35;;
55589;SDS011;41452;42.780;23.116;2023-02-28T08:56:58;50.42;;;17.70;;
55589;SDS011;41452;42.780;23.116;2023-02-28T08:59:24;42.88;;;15.93;;
55589;SDS011;41452;42.780;23.116;2023-02-28T09:01:49;54.30;;;17.75;;
55589;SDS011;41452;42.780;23.116;2023-02-28T09:04:15;38.55;;;14.63;;
55589;SDS011;41452;42.780;23.116;2023-02-28T09:06:40;35.30;;;14.02;;
55589;SDS011;41452;42.780;23.116;2023-02-28T09:09:05;40.80;;;13.63;;
55589;SDS011;41452;42.780;23.116;2023-02-28T09:11:32;34.80;;;14.48;;
55589;SDS011;41452;42.780;23.116;2023-02-28T09:13:58;37.70;;;14.52;;
55589;SDS011;41452;42.780;23.116;2023-02-28T09:16:25;34.10;;;14.85;;
55589;SDS011;41452;42.780;23.116;2023-02-28T09:18:51;36.38;;;13.55;;
55589;SDS011;41452;42.780;23.116;2023-02-28T09:21:17;42.60;;;15.23;;
55589;SDS011;41452;42.780;23.116;2023-02-28T09:23:43;41.40;;;16.52;;
55589;SDS011;41452;42.780;23.116;2023-02-28T09:26:17;49.35;;;16.48;;
55589;SDS011;41452;42.780;23.116;2023-02-28T09:28:48;37.38;;;16.08;;
55589;SDS011;41452;42.780;23.116;2023-02-28T09:31:17;41.58;;;16.60;;
55589;SDS011;41452;42.780;23.116;2023-02-28T09:33:50;52.45;;;17.25;;
55589;SDS011;41452;42.780;23.116;2023-02-28T09:36:17;45.83;;;16.45;;
55589;SDS011;41452;42.780;23.116;2023-02-28T09:38:43;45.03;;;16.92;;
55589;SDS011;41452;42.780;23.116;2023-02-28T09:41:29;45.55;;;18.13;;
55589;SDS011;41452;42.780;23.116;2023-02-28T09:44:05;54.45;;;19.05;;
55589;SDS011;41452;42.780;23.116;2023-02-28T09:46:37;53.63;;;19.52;;
55589;SDS011;41452;42.780;23.116;2023-02-28T09:49:16;56.28;;;21.77;;
55589;SDS011;41452;42.780;23.116;2023-02-28T09:54:29;56.85;;;23.42;;
55589;SDS011;41452;42.780;23.116;2023-02-28T09:56:58;69.88;;;25.33;;
55589;SDS011;41452;42.780;23.116;2023-02-28T10:08:18;44.90;;;17.75;;
55589;SDS011;41452;42.780;23.116;2023-02-28T10:10:51;47.85;;;18.25;;
55589;SDS011;41452;42.780;23.116;2023-02-28T10:15:55;48.75;;;17.38;;
55589;SDS011;41452;42.780;23.116;2023-02-28T10:18:49;50.53;;;19.52;;
55589;SDS011;41452;42.780;23.116;2023-02-28T10:21:38;49.30;;;20.23;;
55589;SDS011;41452;42.780;23.116;2023-02-28T10:24:25;43.20;;;18.60;;
55589;SDS011;41452;42.780;23.116;2023-02-28T10:26:56;45.20;;;19.20;;
55589;SDS011;41452;42.780;23.116;2023-02-28T10:29:36;46.58;;;17.98;;
55589;SDS011;41452;42.780;23.116;2023-02-28T10:32:05;50.00;;;19.75;;
55589;SDS011;41452;42.780;23.116;2023-02-28T10:34:30;41.60;;;17.52;;
55589;SDS011;41452;42.780;23.116;2023-02-28T10:36:56;42.30;;;16.70;;
55589;SDS011;41452;42.780;23.116;2023-02-28T10:39:43;36.22;;;17.45;;
55589;SDS011;41452;42.780;23.116;2023-02-28T10:42:29;49.47;;;18.63;;
55589;SDS011;41452;42.780;23.116;2023-02-28T10:45:05;44.00;;;18.30;;
55589;SDS011;41452;42.780;23.116;2023-02-28T10:48:03;40.30;;;16.40;;
55589;SDS011;41452;42.780;23.116;2023-02-28T10:50:43;43.10;;;15.95;;
55589;SDS011;41452;42.780;23.116;2023-02-28T10:55:56;36.80;;;16.45;;
55589;SDS011;41452;42.780;23.116;2023-02-28T10:58:31;40.05;;;17.40;;
55589;SDS011;41452;42.780;23.116;2023-02-28T11:03:41;39.35;;;14.68;;
55589;SDS011;41452;42.780;23.116;2023-02-28T11:06:08;41.13;;;17.00;;
55589;SDS011;41452;42.780;23.116;2023-02-28T11:08:43;35.13;;;16.60;;
55589;SDS011;41452;42.780;23.116;2023-02-28T11:11:20;33.20;;;14.43;;
55589;SDS011;41452;42.780;23.116;2023-02-28T11:13:48;34.28;;;14.68;;
55589;SDS011;41452;42.780;23.116;2023-02-28T11:16:17;32.90;;;15.30;;
55589;SDS011;41452;42.780;23.116;2023-02-28T11:18:52;33.08;;;12.98;;
55589;SDS011;41452;42.780;23.116;2023-02-28T11:21:26;36.40;;;16.08;;
55589;SDS011;41452;42.780;23.116;2023-02-28T11:24:01;45.85;;;15.35;;
55589;SDS011;41452;42.780;23.116;2023-02-28T11:26:37;40.60;;;15.45;;
55589;SDS011;41452;42.780;23.116;2023-02-28T11:29:05;39.55;;;13.48;;
55589;SDS011;41452;42.780;23.116;2023-02-28T11:31:36;29.42;;;14.15;;
55589;SDS011;41452;42.780;23.116;2023-02-28T11:34:01;25.00;;;11.95;;
55589;SDS011;41452;42.780;23.116;2023-02-28T11:39:13;24.67;;;10.15;;
55589;SDS011;41452;42.780;23.116;2023-02-28T11:52:53;24.05;;;9.23;;
55589;SDS011;41452;42.780;23.116;2023-02-28T12:01:07;30.92;;;10.40;;
55589;SDS011;41452;42.780;23.116;2023-02-28T12:20:41;22.88;;;8.38;;
55589;SDS011;41452;42.780;23.116;2023-02-28T12:28:57;26.05;;;10.15;;
55589;SDS011;41452;42.780;23.116;2023-02-28T12:31:51;30.92;;;11.00;;
55589;SDS011;41452;42.780;23.116;2023-02-28T12:34:25;24.67;;;10.77;;
55589;SDS011;41452;42.780;23.116;2023-02-28T12:36:55;26.83;;;9.52;;
55589;SDS011;41452;42.780;23.116;2023-02-28T12:39:31;25.13;;;9.82;;
55589;SDS011;41452;42.780;23.116;2023-02-28T12:42:07;26.70;;;11.15;;
55589;SDS011;41452;42.780;23.116;2023-02-28T12:44:46;24.42;;;8.82;;
55589;SDS011;41452;42.780;23.116;2023-02-28T12:47:18;28.92;;;11.18;;
55589;SDS011;41452;42.780;23.116;2023-02-28T12:52:17;30.10;;;9.55;;
55589;SDS011;41452;42.780;23.116;2023-02-28T12:59:56;24.98;;;8.30;;
55589;SDS011;41452;42.780;23.116;2023-02-28T13:10:42;20.40;;;8.53;;
55589;SDS011;41452;42.780;23.116;2023-02-28T13:13:14;23.25;;;7.97;;
55589;SDS011;41452;42.780;23.116;2023-02-28T13:15:45;22.25;;;7.57;;
55589;SDS011;41452;42.780;23.116;2023-02-28T13:21:05;21.33;;;9.15;;
55589;SDS011;41452;42.780;23.116;2023-02-28T13:23:40;22.45;;;8.80;;
55589;SDS011;41452;42.780;23.116;2023-02-28T13:26:06;19.90;;;9.30;;
55589;SDS011;41452;42.780;23.116;2023-02-28T13:31:25;19.55;;;8.15;;
55589;SDS011;41452;42.780;23.116;2023-02-28T13:36:23;22.15;;;8.30;;
55589;SDS011;41452;42.780;23.116;2023-02-28T13:38:54;18.67;;;7.60;;
55589;SDS011;41452;42.780;23.116;2023-02-28T13:46:32;27.10;;;9.07;;
55589;SDS011;41452;42.780;23.116;2023-02-28T13:51:45;34.70;;;9.10;;
55589;SDS011;41452;42.780;23.116;2023-02-28T13:54:23;20.73;;;6.95;;
55589;SDS011;41452;42.780;23.116;2023-02-28T13:59:53;24.15;;;9.88;;
55589;SDS011;41452;42.780;23.116;2023-02-28T14:02:34;21.10;;;8.45;;
55589;SDS011;41452;42.780;23.116;2023-02-28T14:05:20;25.60;;;8.45;;
55589;SDS011;41452;42.780;23.116;2023-02-28T14:07:51;20.10;;;7.75;;
55589;SDS011;41452;42.780;23.116;2023-02-28T14:15:46;19.75;;;7.95;;
55589;SDS011;41452;42.780;23.116;2023-02-28T14:18:16;23.23;;;8.50;;
55589;SDS011;41452;42.780;23.116;2023-02-28T14:20:46;30.83;;;9.40;;
55589;SDS011;41452;42.780;23.116;2023-02-28T14:36:51;26.08;;;10.75;;
55589;SDS011;41452;42.780;23.116;2023-02-28T14:39:22;26.60;;;10.00;;
55589;SDS011;41452;42.780;23.116;2023-02-28T14:41:49;24.95;;;11.95;;
55589;SDS011;41452;42.780;23.116;2023-02-28T14:44:18;23.40;;;10.65;;
55589;SDS011;41452;42.780;23.116;2023-02-28T14:46:55;24.63;;;10.20;;
55589;SDS011;41452;42.780;23.116;2023-02-28T14:49:31;28.75;;;11.38;;
55589;SDS011;41452;42.780;23.116;2023-02-28T14:52:02;20.42;;;9.63;;
55589;SDS011;41452;42.780;23.116;2023-02-28T14:54:34;29.67;;;11.67;;
55589;SDS011;41452;42.780;23.116;2023-02-28T14:57:03;23.45;;;9.98;;
55589;SDS011;41452;42.780;23.116;2023-02-28T14:59:31;29.48;;;10.35;;
55589;SDS011;41452;42.780;23.116;2023-02-28T15:04:54;17.98;;;9.07;;
55589;SDS011;41452;42.780;23.116;2023-02-28T15:07:24;25.52;;;9.15;;
55589;SDS011;41452;42.780;23.116;2023-02-28T15:12:45;18.90;;;7.85;;
55589;SDS011;41452;42.780;23.116;2023-02-28T15:15:16;17.92;;;7.50;;
55589;SDS011;41452;42.780;23.116;2023-02-28T15:17:45;16.77;;;7.40;;
55589;SDS011;41452;42.780;23.116;2023-02-28T15:20:15;21.00;;;8.18;;
55589;SDS011;41452;42.780;23.116;2023-02-28T15:22:43;18.02;;;6.90;;
55589;SDS011;41452;42.780;23.116;2023-02-28T15:25:10;13.18;;;6.75;;
55589;SDS011;41452;42.780;23.116;2023-02-28T15:27:42;12.77;;;6.40;;
55589;SDS011;41452;42.780;23.116;2023-02-28T15:30:15;16.10;;;5.85;;
55589;SDS011;41452;42.780;23.116;2023-02-28T15:32:44;11.95;;;5.68;;
55589;SDS011;41452;42.780;23.116;2023-02-28T15:37:56;14.02;;;6.28;;
55589;SDS011;41452;42.780;23.116;2023-02-28T15:40:44;15.20;;;7.18;;
55589;SDS011;41452;42.780;23.116;2023-02-28T15:43:39;13.43;;;6.35;;
55589;SDS011;41452;42.780;23.116;2023-02-28T15:46:11;22.77;;;8.20;;
55589;SDS011;41452;42.780;23.116;2023-02-28T15:48:50;13.15;;;6.40;;
55589;SDS011;41452;42.780;23.116;2023-02-28T15:51:18;15.50;;;7.00;;
55589;SDS011;41452;42.780;23.116;2023-02-28T15:53:48;14.85;;;7.60;;
55589;SDS011;41452;42.780;23.116;2023-02-28T15:56:27;18.33;;;6.15;;
55589;SDS011;41452;42.780;23.116;2023-02-28T15:58:56;10.90;;;5.57;;
55589;SDS011;41452;42.780;23.116;2023-02-28T16:01:25;17.27;;;5.82;;
55589;SDS011;41452;42.780;23.116;2023-02-28T16:03:54;17.77;;;5.95;;
55589;SDS011;41452;42.780;23.116;2023-02-28T16:09:11;12.10;;;5.00;;
55589;SDS011;41452;42.780;23.116;2023-02-28T16:11:39;12.45;;;6.07;;
55589;SDS011;41452;42.780;23.116;2023-02-28T16:14:11;15.60;;;5.82;;
55589;SDS011;41452;42.780;23.116;2023-02-28T16:16:41;19.45;;;5.53;;
55589;SDS011;41452;42.780;23.116;2023-02-28T16:19:09;9.57;;;5.40;;
55589;SDS011;41452;42.780;23.116;2023-02-28T16:21:34;11.43;;;4.78;;
55589;SDS011;41452;42.780;23.116;2023-02-28T16:23:59;12.75;;;5.22;;
55589;SDS011;41452;42.780;23.116;2023-02-28T16:26:25;10.95;;;5.32;;
55589;SDS011;41452;42.780;23.116;2023-02-28T16:28:52;16.88;;;5.47;;
55589;SDS011;41452;42.780;23.116;2023-02-28T16:31:18;10.43;;;5.13;;
55589;SDS011;41452;42.780;23.116;2023-02-28T16:33:44;12.60;;;4.43;;
55589;SDS011;41452;42.780;23.116;2023-02-28T16:36:12;10.50;;;4.78;;
55589;SDS011;41452;42.780;23.116;2023-02-28T16:38:42;11.88;;;5.10;;
55589;SDS011;41452;42.780;23.116;2023-02-28T16:41:08;10.68;;;3.80;;
55589;SDS011;41452;42.780;23.116;2023-02-28T16:43:44;15.23;;;5.32;;
55589;SDS011;41452;42.780;23.116;2023-02-28T16:46:11;15.65;;;5.10;;
55589;SDS011;41452;42.780;23.116;2023-02-28T16:48:37;16.10;;;4.78;;
55589;SDS011;41452;42.780;23.116;2023-02-28T16:51:04;14.50;;;5.10;;
55589;SDS011;41452;42.780;23.116;2023-02-28T16:53:30;10.95;;;4.70;;
55589;SDS011;41452;42.780;23.116;2023-02-28T16:55:55;7.65;;;3.63;;
55589;SDS011;41452;42.780;23.116;2023-02-28T16:58:21;10.73;;;3.38;;
55589;SDS011;41452;42.780;23.116;2023-02-28T17:00:50;9.68;;;3.75;;
55589;SDS011;41452;42.780;23.116;2023-02-28T17:03:24;13.98;;;3.45;;
55589;SDS011;41452;42.780;23.116;2023-02-28T17:05:51;10.80;;;2.88;;
55589;SDS011;41452;42.780;23.116;2023-02-28T17:08:17;7.03;;;3.10;;
55589;SDS011;41452;42.780;23.116;2023-02-28T17:10:42;10.05;;;3.65;;
55589;SDS011;41452;42.780;23.116;2023-02-28T17:13:08;7.40;;;3.17;;